Terminal Aerodrome Forecast
Issued by NWS

Home | Current Version | Previous Version | Text Only | Print | Product List | Glossary On
Versions: 1 2 3 4 5 6 7 8 9 10 11 12 13 14 15 16 17 18 19 20 21 22 23 24 25 26 27 28 29
000
FTUS41 KCTP 302339
TAFUNV
TAF
KUNV 302339Z 0100/0124 16007KT P6SM BKN040
     FM010100 15007KT P6SM SCT035 BKN080
     FM012000 19008G20KT 5SM -SHRA BR OVC030
      TEMPO 0120/0123 26015G30KT 3/4SM +TSRA BR OVC018CB
     FM012300 24012G22KT P6SM BKN035=

USA.gov is the U.S. government's official web portal to all federal, state and local government web resources and services.